Time;durP1;ratioP1;P1;durP2;ratioP2;P2;SDS_P1;SDS_P2;PMS_P1;PMS_P2;Temp;Humidity;BMP_temperature;BMP_pressure;BME280_temperature;BME280_humidity;BME280_pressure;Samples;Min_cycle;Max_cycle;Signal;HPM_P1;HPM_P2
2024/01/07 00:00:16;;;;;;;0.70;0.70;;;10.90;99.90;;;;;;4989888;28;20058;-79
2024/01/07 00:02:42;;;;;;;2.50;0.60;;;10.90;99.90;;;;;;4989996;28;20030;-79
2024/01/07 00:05:08;;;;;;;1.67;1.00;;;10.80;99.90;;;;;;4988297;28;20084;-77
2024/01/07 00:07:34;;;;;;;3.85;1.38;;;10.90;99.90;;;;;;4988525;28;20026;-78
2024/01/07 00:09:59;;;;;;;1.33;0.80;;;10.80;99.90;;;;;;4990201;28;20041;-79
2024/01/07 00:12:25;;;;;;;1.67;0.95;;;10.80;99.90;;;;;;4989829;28;20041;-78
2024/01/07 00:14:51;;;;;;;0.70;0.68;;;10.80;99.90;;;;;;4990398;28;20027;-83
2024/01/07 00:17:16;;;;;;;1.08;0.80;;;10.80;99.90;;;;;;4993117;28;20512;-83
2024/01/07 00:19:42;;;;;;;1.25;0.90;;;10.80;99.90;;;;;;4993593;28;20030;-83
2024/01/07 00:22:08;;;;;;;0.60;0.55;;;10.80;99.90;;;;;;4990569;28;20083;-82
2024/01/07 00:24:34;;;;;;;1.27;0.90;;;10.70;99.90;;;;;;4992282;28;20034;-84
2024/01/07 00:27:03;;;;;;;0.95;0.80;;;10.70;99.90;;;;;;4991635;28;20045;-81
2024/01/07 00:29:29;;;;;;;1.02;0.93;;;10.70;99.90;;;;;;4993259;28;20070;-81
2024/01/07 00:31:54;;;;;;;0.50;0.50;;;10.70;99.90;;;;;;4991209;28;20471;-79
2024/01/07 00:34:20;;;;;;;1.58;1.15;;;10.80;99.90;;;;;;4992403;28;20083;-80
2024/01/07 00:36:46;;;;;;;1.17;0.90;;;10.80;99.90;;;;;;4992496;28;20074;-80
2024/01/07 00:39:11;;;;;;;1.20;0.80;;;10.80;99.90;;;;;;4989859;28;20087;-79
2024/01/07 00:41:37;;;;;;;1.27;0.88;;;10.80;99.90;;;;;;4990125;28;20458;-80
2024/01/07 00:44:03;;;;;;;2.83;0.95;;;10.80;99.90;;;;;;4990315;28;20052;-79
2024/01/07 00:46:28;;;;;;;0.80;0.70;;;10.70;99.90;;;;;;4990506;28;20037;-79
2024/01/07 00:48:54;;;;;;;0.60;0.60;;;10.70;99.90;;;;;;4992542;28;20137;-79
2024/01/07 00:51:20;;;;;;;1.00;0.60;;;10.80;99.90;;;;;;4991110;28;20031;-79
2024/01/07 00:53:45;;;;;;;0.43;0.40;;;10.80;99.90;;;;;;4992505;28;20034;-79
2024/01/07 00:56:11;;;;;;;0.55;0.40;;;10.80;99.90;;;;;;4992585;28;20442;-79
2024/01/07 00:58:37;;;;;;;0.65;0.47;;;10.80;99.90;;;;;;4991362;28;20083;-79
2024/01/07 01:01:03;;;;;;;0.73;0.60;;;10.80;99.90;;;;;;4991215;28;20029;-79
2024/01/07 01:03:29;;;;;;;0.90;0.45;;;10.90;99.90;;;;;;4992354;28;20027;-79
2024/01/07 01:05:54;;;;;;;0.90;0.50;;;10.80;99.90;;;;;;4992489;28;20084;-79
2024/01/07 01:08:20;;;;;;;1.80;0.68;;;10.80;99.90;;;;;;4991579;28;20038;-79
2024/01/07 01:10:46;;;;;;;1.20;0.43;;;10.90;99.90;;;;;;4989883;28;20034;-78
2024/01/07 01:13:11;;;;;;;0.35;0.35;;;10.90;99.90;;;;;;4990941;28;20026;-79
2024/01/07 01:15:37;;;;;;;0.93;0.60;;;10.90;99.90;;;;;;4992226;28;20076;-79
2024/01/07 01:18:03;;;;;;;0.82;0.63;;;10.90;99.90;;;;;;4992709;28;20030;-79
2024/01/07 01:20:28;;;;;;;0.60;0.50;;;10.90;99.90;;;;;;4991643;28;20027;-78
2024/01/07 01:22:54;;;;;;;1.88;0.70;;;10.90;99.90;;;;;;4991308;28;20033;-79
2024/01/07 01:25:20;;;;;;;0.63;0.55;;;10.90;99.90;;;;;;4991637;28;20034;-79
2024/01/07 01:27:46;;;;;;;0.80;0.60;;;11.00;99.90;;;;;;4991743;28;20147;-79
2024/01/07 01:30:13;;;;;;;1.30;1.00;;;11.00;99.90;;;;;;4991326;28;20125;-79
2024/01/07 01:32:39;;;;;;;0.70;0.60;;;11.00;99.90;;;;;;4992143;28;20026;-79
2024/01/07 01:35:05;;;;;;;0.93;0.60;;;11.00;99.90;;;;;;4991581;28;20045;-80
2024/01/07 01:37:34;;;;;;;0.82;0.73;;;11.00;99.90;;;;;;4991732;28;20118;-79
2024/01/07 01:40:00;;;;;;;1.77;0.85;;;11.00;99.90;;;;;;4991061;28;20053;-80
2024/01/07 01:42:25;;;;;;;2.67;1.00;;;11.00;99.90;;;;;;4990510;28;20590;-79
2024/01/07 01:44:52;;;;;;;1.10;1.00;;;11.00;99.90;;;;;;4991696;28;20031;-79
2024/01/07 01:47:18;;;;;;;1.52;1.02;;;11.00;99.90;;;;;;4991344;28;20113;-79
2024/01/07 01:49:45;;;;;;;2.65;1.20;;;11.00;99.90;;;;;;4991846;28;20114;-80
2024/01/07 01:52:12;;;;;;;1.75;1.17;;;11.00;99.90;;;;;;4991962;28;20033;-79
2024/01/07 01:54:38;;;;;;;1.48;1.08;;;11.00;99.90;;;;;;4991222;28;20110;-79
2024/01/07 01:57:05;;;;;;;1.38;1.02;;;11.00;99.90;;;;;;4991594;28;20129;-79
2024/01/07 01:59:32;;;;;;;1.42;1.25;;;11.00;99.90;;;;;;4991050;28;20037;-80
2024/01/07 02:01:58;;;;;;;2.55;1.40;;;11.00;99.90;;;;;;4991172;28;20049;-78
2024/01/07 02:04:24;;;;;;;2.10;1.20;;;11.00;99.90;;;;;;4991817;28;20469;-79
2024/01/07 02:06:49;;;;;;;1.40;1.30;;;10.90;99.90;;;;;;4990814;28;20380;-79
2024/01/07 02:09:15;;;;;;;3.28;1.30;;;10.90;99.90;;;;;;4989324;28;20126;-79
2024/01/07 02:11:41;;;;;;;1.45;1.02;;;10.90;99.90;;;;;;4996211;28;20029;-80
2024/01/07 02:14:07;;;;;;;1.48;1.10;;;11.00;99.90;;;;;;4990834;28;20088;-79
2024/01/07 02:16:33;;;;;;;1.45;1.10;;;11.00;99.90;;;;;;4990725;28;20113;-79
2024/01/07 02:18:58;;;;;;;1.83;1.27;;;11.00;99.90;;;;;;4991119;28;20061;-79
2024/01/07 02:21:24;;;;;;;1.65;1.00;;;11.00;99.90;;;;;;4989811;28;20126;-79
2024/01/07 02:23:50;;;;;;;1.25;1.13;;;11.00;99.90;;;;;;4989438;28;20034;-80
2024/01/07 02:26:16;;;;;;;1.70;1.20;;;11.00;99.90;;;;;;4990703;28;20030;-79
2024/01/07 02:28:41;;;;;;;1.90;1.40;;;11.00;99.90;;;;;;4990695;28;20038;-80
2024/01/07 02:31:07;;;;;;;1.73;1.23;;;11.00;99.90;;;;;;4990751;28;20474;-80
2024/01/07 02:33:33;;;;;;;1.35;1.20;;;11.00;99.90;;;;;;4991089;28;20476;-80
2024/01/07 02:35:58;;;;;;;1.25;1.10;;;11.00;99.90;;;;;;4991074;28;20050;-80
2024/01/07 02:38:24;;;;;;;1.55;1.10;;;11.00;99.90;;;;;;4990271;28;20042;-79
2024/01/07 02:40:50;;;;;;;1.48;1.02;;;11.10;99.90;;;;;;4991154;28;20065;-79
2024/01/07 02:43:15;;;;;;;1.33;1.00;;;11.10;99.90;;;;;;4991237;28;20030;-79
2024/01/07 02:45:41;;;;;;;1.42;0.90;;;11.10;99.90;;;;;;4991225;28;20521;-79
2024/01/07 02:48:07;;;;;;;2.13;1.15;;;11.10;99.90;;;;;;4990955;28;20034;-79
2024/01/07 02:50:33;;;;;;;1.52;0.90;;;11.10;99.90;;;;;;4991193;28;20034;-79
2024/01/07 02:52:59;;;;;;;1.30;1.10;;;11.20;99.90;;;;;;4991203;28;20091;-79
2024/01/07 02:55:24;;;;;;;1.52;1.00;;;11.10;99.90;;;;;;4989301;28;20042;-80
2024/01/07 02:57:50;;;;;;;1.52;0.80;;;11.20;99.90;;;;;;4990746;28;20498;-80
2024/01/07 03:00:16;;;;;;;1.00;0.70;;;11.20;99.90;;;;;;4991040;28;20357;-80
2024/01/07 03:02:42;;;;;;;1.63;0.77;;;11.20;99.90;;;;;;4989280;28;20038;-81
2024/01/07 03:05:08;;;;;;;1.50;0.70;;;11.20;99.90;;;;;;4990934;28;20456;-80
2024/01/07 03:07:33;;;;;;;0.55;0.55;;;11.20;99.90;;;;;;4990938;28;20084;-80
2024/01/07 03:09:59;;;;;;;6.18;0.80;;;11.20;99.90;;;;;;4990800;28;20038;-80
2024/01/07 03:12:25;;;;;;;0.95;0.60;;;11.20;99.90;;;;;;4990642;28;20036;-80
2024/01/07 03:14:51;;;;;;;0.77;0.47;;;11.20;99.90;;;;;;4990352;28;20034;-80
2024/01/07 03:17:17;;;;;;;0.55;0.40;;;11.20;99.90;;;;;;4990251;28;20038;-80
2024/01/07 03:19:43;;;;;;;0.28;0.28;;;11.20;99.90;;;;;;4990605;28;20022;-80
2024/01/07 03:22:08;;;;;;;0.40;0.30;;;11.10;99.90;;;;;;4989752;28;20476;-81
2024/01/07 03:24:34;;;;;;;1.73;0.60;;;11.10;99.90;;;;;;4989248;28;20128;-81
2024/01/07 03:27:00;;;;;;;0.30;0.30;;;11.10;99.90;;;;;;4990434;28;20521;-80
2024/01/07 03:29:26;;;;;;;0.55;0.30;;;11.10;99.90;;;;;;4990395;28;20121;-80
2024/01/07 03:31:52;;;;;;;0.30;0.30;;;11.10;99.90;;;;;;4988421;28;20033;-80
2024/01/07 03:34:19;;;;;;;0.88;0.40;;;11.10;99.90;;;;;;4990396;28;20053;-80
2024/01/07 03:36:44;;;;;;;0.63;0.30;;;11.10;99.90;;;;;;4990231;28;20043;-80
2024/01/07 03:39:10;;;;;;;0.38;0.38;;;11.00;99.90;;;;;;4989906;28;20029;-80
2024/01/07 03:41:36;;;;;;;0.82;0.40;;;11.10;99.90;;;;;;4990305;28;20034;-80
2024/01/07 03:44:01;;;;;;;0.22;0.20;;;11.00;99.50;;;;;;4990457;28;20071;-80
2024/01/07 03:46:27;;;;;;;0.45;0.28;;;11.00;99.70;;;;;;4989710;28;20072;-80
2024/01/07 03:48:53;;;;;;;0.20;0.20;;;11.00;99.70;;;;;;4990878;28;20114;-80
2024/01/07 03:51:19;;;;;;;0.30;0.22;;;10.90;99.80;;;;;;4992840;28;20031;-80
2024/01/07 03:53:44;;;;;;;0.20;0.10;;;10.90;99.50;;;;;;4993384;28;20025;-80
2024/01/07 03:56:10;;;;;;;0.20;0.20;;;11.00;99.50;;;;;;4993892;28;20030;-80
2024/01/07 03:58:36;;;;;;;0.50;0.20;;;10.90;99.40;;;;;;4993037;28;20489;-80
2024/01/07 04:01:02;;;;;;;0.32;0.30;;;10.90;99.30;;;;;;4993075;28;20522;-80
2024/01/07 04:03:27;;;;;;;0.50;0.10;;;10.90;99.50;;;;;;4993148;28;20038;-80
2024/01/07 04:05:53;;;;;;;0.10;0.10;;;11.00;99.30;;;;;;4992050;28;20118;-80
2024/01/07 04:08:19;;;;;;;0.10;0.10;;;11.00;99.20;;;;;;4993108;28;20037;-79
2024/01/07 04:10:44;;;;;;;0.20;0.17;;;11.00;99.30;;;;;;4993564;28;20114;-79
2024/01/07 04:13:10;;;;;;;0.45;0.28;;;11.00;99.40;;;;;;4993529;28;20612;-80
2024/01/07 04:15:36;;;;;;;0.17;0.17;;;11.00;99.40;;;;;;4992774;28;20408;-79
2024/01/07 04:18:03;;;;;;;1.85;0.10;;;10.90;99.10;;;;;;4992864;28;20078;-79
2024/01/07 04:20:29;;;;;;;0.22;0.13;;;10.90;99.30;;;;;;4992897;28;20018;-79
2024/01/07 04:22:55;;;;;;;0.25;0.20;;;10.90;98.90;;;;;;4991709;28;20038;-79
2024/01/07 04:25:21;;;;;;;0.68;0.30;;;10.90;99.20;;;;;;4992764;28;20030;-80
2024/01/07 04:27:46;;;;;;;0.32;0.10;;;11.00;99.20;;;;;;4993290;28;20094;-79
2024/01/07 04:30:12;;;;;;;0.20;0.20;;;11.00;99.00;;;;;;4991440;28;20361;-80
2024/01/07 04:32:38;;;;;;;0.10;0.10;;;11.00;99.10;;;;;;4991350;28;20095;-80
2024/01/07 04:35:04;;;;;;;0.20;0.15;;;10.90;98.90;;;;;;4993035;28;20522;-80
2024/01/07 04:37:30;;;;;;;0.10;0.10;;;10.80;98.80;;;;;;4992686;28;20070;-79
2024/01/07 04:39:55;;;;;;;0.10;0.10;;;10.80;99.00;;;;;;4992478;28;20060;-80
2024/01/07 04:42:21;;;;;;;0.30;0.20;;;10.80;99.00;;;;;;4992473;28;20099;-81
2024/01/07 04:44:46;;;;;;;0.10;0.10;;;10.70;98.70;;;;;;4992563;28;20023;-81
2024/01/07 04:47:29;;;;;;;0.10;0.10;;;10.60;98.50;;;;;;4993080;28;20399;-81
2024/01/07 04:49:55;;;;;;;0.20;0.20;;;10.60;98.90;;;;;;4992946;28;20038;-81
2024/01/07 04:52:25;;;;;;;0.10;0.10;;;10.70;98.90;;;;;;4993200;28;20117;-81
2024/01/07 04:54:55;;;;;;;0.17;0.17;;;10.70;99.10;;;;;;4993908;28;20026;-81
2024/01/07 04:57:21;;;;;;;0.20;0.10;;;10.70;99.10;;;;;;4993600;28;20040;-81
2024/01/07 04:59:48;;;;;;;0.13;0.13;;;10.70;98.90;;;;;;5045416;28;20069;-80
2024/01/07 05:02:14;;;;;;;0.30;0.30;;;10.70;99.00;;;;;;4992094;28;20037;-81
2024/01/07 05:04:40;;;;;;;0.15;0.13;;;10.80;99.10;;;;;;4992899;28;20014;-81
2024/01/07 05:07:06;;;;;;;0.20;0.20;;;10.80;99.20;;;;;;4992885;28;20357;-81
2024/01/07 05:09:35;;;;;;;0.10;0.10;;;10.80;99.10;;;;;;4992470;28;20022;-81
2024/01/07 05:12:00;;;;;;;0.13;0.13;;;10.90;98.90;;;;;;4992367;28;20046;-80
2024/01/07 05:14:27;;;;;;;0.10;0.10;;;10.90;98.90;;;;;;4992604;28;20022;-80
2024/01/07 05:16:55;;;;;;;0.10;0.10;;;10.80;98.50;;;;;;4992300;28;20044;-80
2024/01/07 05:19:21;;;;;;;0.10;0.10;;;10.70;98.80;;;;;;4992626;28;20031;-81
2024/01/07 05:21:47;;;;;;;0.50;0.38;;;10.60;99.00;;;;;;4992413;28;20039;-80
2024/01/07 05:24:13;;;;;;;0.10;0.10;;;10.70;99.20;;;;;;4992679;28;20109;-80
2024/01/07 05:26:43;;;;;;;0.10;0.10;;;10.60;99.40;;;;;;4992854;28;20545;-79
2024/01/07 05:29:09;;;;;;;0.10;0.10;;;10.70;99.40;;;;;;4992082;28;20066;-80
2024/01/07 05:31:35;;;;;;;0.10;0.10;;;10.60;99.20;;;;;;4992124;28;20380;-79
2024/01/07 05:34:01;;;;;;;0.10;0.10;;;10.70;99.30;;;;;;4991576;28;20034;-80
2024/01/07 05:36:26;;;;;;;0.10;0.10;;;10.70;99.40;;;;;;4991936;28;20050;-79
2024/01/07 05:38:52;;;;;;;0.77;0.10;;;10.70;99.40;;;;;;4992115;28;20030;-79
2024/01/07 05:41:18;;;;;;;0.15;0.10;;;10.60;99.00;;;;;;4992141;28;20050;-79
2024/01/07 05:43:43;;;;;;;0.10;0.10;;;10.60;98.90;;;;;;4992178;28;20030;-80
2024/01/07 05:46:11;;;;;;;0.10;0.10;;;10.70;99.10;;;;;;4991429;28;20044;-80
2024/01/07 05:48:49;;;;;;;0.10;0.10;;;10.70;99.20;;;;;;4992483;28;20026;-80
2024/01/07 05:51:15;;;;;;;0.10;0.10;;;10.80;99.20;;;;;;4991807;28;20426;-80
2024/01/07 05:53:41;;;;;;;0.10;0.10;;;10.70;99.10;;;;;;4992021;28;20139;-80
2024/01/07 05:56:07;;;;;;;0.20;0.20;;;10.70;99.10;;;;;;4991414;28;20041;-79
2024/01/07 05:58:33;;;;;;;0.10;0.10;;;10.70;98.80;;;;;;4991885;28;20036;-80
2024/01/07 06:01:00;;;;;;;0.52;0.22;;;10.70;98.70;;;;;;4991646;28;20098;-80
2024/01/07 06:03:26;;;;;;;0.10;0.10;;;10.70;98.50;;;;;;4991313;28;20377;-79
2024/01/07 06:05:52;;;;;;;0.10;0.10;;;10.70;98.70;;;;;;4990702;28;20029;-80
2024/01/07 06:08:17;;;;;;;0.10;0.10;;;10.70;98.50;;;;;;4991779;28;20026;-81
2024/01/07 06:10:43;;;;;;;0.20;0.20;;;10.70;98.60;;;;;;4991335;28;20027;-80
2024/01/07 06:13:09;;;;;;;0.20;0.20;;;10.70;98.60;;;;;;4991627;28;20035;-80
2024/01/07 06:15:35;;;;;;;0.10;0.10;;;10.80;98.70;;;;;;4990414;28;20034;-80
2024/01/07 06:18:01;;;;;;;0.20;0.20;;;10.70;98.60;;;;;;4989801;28;20038;-80
2024/01/07 06:20:28;;;;;;;0.85;0.22;;;10.70;98.70;;;;;;4991263;28;20049;-80
2024/01/07 06:22:53;;;;;;;0.10;0.10;;;10.70;99.00;;;;;;4990304;28;20035;-80
2024/01/07 06:25:20;;;;;;;0.32;0.13;;;10.70;99.20;;;;;;4991652;28;20034;-80
2024/01/07 06:27:46;;;;;;;0.20;0.20;;;10.60;99.30;;;;;;4991279;28;20476;-80
2024/01/07 06:30:12;;;;;;;0.25;0.22;;;10.50;99.60;;;;;;4990995;28;20041;-81
2024/01/07 06:32:37;;;;;;;0.20;0.20;;;10.50;99.70;;;;;;4990309;28;20105;-80
2024/01/07 06:35:04;;;;;;;0.20;0.20;;;10.50;99.80;;;;;;4991276;28;20036;-80
2024/01/07 06:37:30;;;;;;;0.20;0.20;;;10.50;99.90;;;;;;4990806;28;20035;-80
2024/01/07 06:39:58;;;;;;;0.43;0.40;;;10.40;99.90;;;;;;4990286;28;20022;-80
2024/01/07 06:42:24;;;;;;;0.40;0.30;;;10.40;99.90;;;;;;4991037;28;20448;-79
2024/01/07 06:44:49;;;;;;;0.10;0.10;;;10.40;99.90;;;;;;4989665;28;20072;-79
2024/01/07 06:47:15;;;;;;;0.32;0.30;;;10.30;99.90;;;;;;4990653;28;20042;-80
2024/01/07 06:49:41;;;;;;;0.40;0.30;;;10.30;99.90;;;;;;4989698;28;20026;-79
2024/01/07 06:52:06;;;;;;;0.35;0.25;;;10.30;99.90;;;;;;4990362;28;20039;-80
2024/01/07 06:54:33;;;;;;;0.30;0.20;;;10.20;99.90;;;;;;4990372;28;20018;-81
2024/01/07 06:56:58;;;;;;;0.30;0.30;;;10.20;99.90;;;;;;4988726;28;20038;-80
2024/01/07 06:59:24;;;;;;;0.43;0.38;;;10.30;99.90;;;;;;4977456;28;20076;-80
2024/01/07 07:01:50;;;;;;;0.28;0.28;;;10.40;99.90;;;;;;4989655;28;20370;-80
2024/01/07 07:04:16;;;;;;;0.20;0.20;;;10.40;99.90;;;;;;4982017;28;20071;-80
2024/01/07 07:06:41;;;;;;;0.65;0.40;;;10.40;99.90;;;;;;4991188;28;20046;-80
2024/01/07 07:09:07;;;;;;;0.20;0.20;;;10.40;99.90;;;;;;4989103;28;20464;-80
2024/01/07 07:11:33;;;;;;;0.68;0.30;;;10.40;99.90;;;;;;4989251;28;20053;-80
2024/01/07 07:13:58;;;;;;;0.38;0.38;;;10.40;99.90;;;;;;4991152;28;20031;-81
2024/01/07 07:16:27;;;;;;;1.38;0.40;;;10.40;99.90;;;;;;4991016;28;20053;-83
2024/01/07 07:18:53;;;;;;;0.40;0.30;;;10.40;99.90;;;;;;4981317;28;20485;-80
2024/01/07 07:21:19;;;;;;;0.40;0.40;;;10.50;99.90;;;;;;5010688;28;20092;-80
2024/01/07 07:23:45;;;;;;;0.57;0.43;;;10.50;99.90;;;;;;5012467;28;20499;-80
2024/01/07 07:26:10;;;;;;;0.25;0.22;;;10.50;99.90;;;;;;4990142;28;20034;-83
2024/01/07 07:28:36;;;;;;;0.93;0.40;;;10.50;99.90;;;;;;4984464;28;20066;-81
2024/01/07 07:31:02;;;;;;;0.70;0.32;;;10.60;99.90;;;;;;4980699;28;20545;-81
2024/01/07 07:33:28;;;;;;;0.45;0.30;;;10.60;99.90;;;;;;4989308;28;20034;-81
2024/01/07 07:35:53;;;;;;;0.57;0.38;;;10.60;99.90;;;;;;5030829;28;20539;-81
2024/01/07 07:38:19;;;;;;;0.30;0.30;;;10.60;99.90;;;;;;4973107;28;20027;-81
2024/01/07 07:40:52;;;;;;;0.28;0.28;;;10.60;99.90;;;;;;4983350;28;20122;-85
2024/01/07 07:43:19;;;;;;;0.68;0.40;;;10.60;99.90;;;;;;4988485;28;20014;-82
2024/01/07 07:45:44;;;;;;;0.45;0.32;;;10.60;99.90;;;;;;4976616;28;20027;-81
2024/01/07 07:48:10;;;;;;;0.47;0.47;;;10.60;99.90;;;;;;4988705;28;20042;-83
2024/01/07 07:50:36;;;;;;;0.60;0.55;;;10.50;99.90;;;;;;4989397;28;20033;-87
2024/01/07 07:53:02;;;;;;;0.75;0.68;;;10.50;99.90;;;;;;4991383;28;20368;-85
2024/01/07 07:55:28;;;;;;;0.98;0.68;;;10.50;99.90;;;;;;4989350;28;20030;-86
2024/01/07 07:57:54;;;;;;;1.05;0.63;;;10.50;99.90;;;;;;4990925;28;20034;-86
2024/01/07 08:00:20;;;;;;;0.50;0.50;;;10.50;99.90;;;;;;4990027;28;20030;-81
2024/01/07 08:02:45;;;;;;;0.47;0.45;;;10.50;99.90;;;;;;4990477;28;20026;-81
2024/01/07 08:05:11;;;;;;;2.33;1.02;;;10.60;99.90;;;;;;4980786;28;20034;-85
2024/01/07 08:07:37;;;;;;;1.08;0.65;;;10.60;99.90;;;;;;4989898;28;20041;-81
2024/01/07 08:10:03;;;;;;;1.10;0.85;;;10.60;99.90;;;;;;5007861;28;20109;-81
2024/01/07 08:12:29;;;;;;;1.50;0.80;;;10.60;99.90;;;;;;4985699;28;20045;-81
2024/01/07 08:14:54;;;;;;;0.90;0.60;;;10.60;99.90;;;;;;4987700;28;20038;-82
2024/01/07 08:17:20;;;;;;;1.02;0.80;;;10.60;99.90;;;;;;4989998;28;20026;-83
2024/01/07 08:19:46;;;;;;;1.42;0.70;;;10.70;99.90;;;;;;4979201;28;20049;-82
2024/01/07 08:22:12;;;;;;;1.58;0.70;;;10.70;99.90;;;;;;4987933;28;20361;-82
2024/01/07 08:24:38;;;;;;;0.68;0.68;;;10.70;99.90;;;;;;4990327;28;20022;-82
2024/01/07 08:27:04;;;;;;;0.55;0.45;;;10.70;99.90;;;;;;4989882;28;20434;-82
2024/01/07 08:29:30;;;;;;;0.93;0.82;;;10.70;99.90;;;;;;4974014;28;20116;-82
2024/01/07 08:31:56;;;;;;;0.90;0.70;;;10.80;99.90;;;;;;4983415;28;20463;-82
2024/01/07 08:34:21;;;;;;;1.00;0.70;;;10.80;99.90;;;;;;4974938;28;20350;-81
2024/01/07 08:36:47;;;;;;;1.08;0.85;;;10.80;99.90;;;;;;4984005;28;20400;-81
2024/01/07 08:39:16;;;;;;;3.63;1.17;;;10.80;99.90;;;;;;4989894;28;20122;-81
2024/01/07 08:41:41;;;;;;;1.60;0.80;;;10.80;99.90;;;;;;4978671;28;20023;-81
2024/01/07 08:44:10;;;;;;;1.88;0.80;;;10.80;99.90;;;;;;5060923;28;20036;-80
2024/01/07 08:46:36;;;;;;;2.65;1.63;;;10.70;99.90;;;;;;5075858;28;20020;-81
2024/01/07 08:49:02;;;;;;;2.45;1.45;;;10.80;99.90;;;;;;5005173;28;20027;-81
2024/01/07 08:51:29;;;;;;;4.05;1.85;;;10.80;99.90;;;;;;4973846;28;20026;-81
2024/01/07 08:53:55;;;;;;;3.05;1.60;;;10.80;99.90;;;;;;4985086;28;20456;-81
2024/01/07 08:56:20;;;;;;;2.55;1.52;;;10.80;99.90;;;;;;4991560;28;20049;-81
2024/01/07 08:58:46;;;;;;;5.57;1.75;;;10.80;99.90;;;;;;4993412;28;20152;-81
2024/01/07 09:01:14;;;;;;;2.95;1.65;;;10.80;99.90;;;;;;4992222;28;20022;-81
2024/01/07 09:03:40;;;;;;;7.60;2.50;;;10.80;99.90;;;;;;4992930;28;20372;-81
2024/01/07 09:06:05;;;;;;;3.35;2.13;;;10.80;99.90;;;;;;4979814;28;20035;-81
2024/01/07 09:08:32;;;;;;;2.50;1.63;;;10.80;99.90;;;;;;4974098;28;20372;-81
2024/01/07 09:11:00;;;;;;;1.85;1.30;;;10.80;99.90;;;;;;4973778;28;20023;-81
2024/01/07 09:13:26;;;;;;;2.08;1.30;;;10.80;99.90;;;;;;4976025;28;20027;-81
2024/01/07 09:15:51;;;;;;;1.52;1.13;;;10.80;99.90;;;;;;4982297;28;20102;-81
2024/01/07 09:18:17;;;;;;;1.48;1.13;;;10.80;99.90;;;;;;5006276;28;20125;-81
2024/01/07 09:20:43;;;;;;;1.10;1.00;;;10.80;99.90;;;;;;4987502;28;20023;-81
2024/01/07 09:23:08;;;;;;;1.67;1.20;;;10.80;99.90;;;;;;4984414;28;20033;-82
2024/01/07 09:25:34;;;;;;;1.08;0.85;;;10.90;99.90;;;;;;4982130;28;20066;-81
2024/01/07 09:28:00;;;;;;;1.27;0.90;;;10.90;99.90;;;;;;4984485;28;20392;-79
2024/01/07 09:30:26;;;;;;;1.17;0.93;;;10.90;99.90;;;;;;4976157;28;20663;-80
2024/01/07 09:32:51;;;;;;;0.73;0.73;;;10.90;99.90;;;;;;4988433;28;20037;-80
2024/01/07 09:35:17;;;;;;;1.45;1.02;;;11.00;99.90;;;;;;4991377;28;20087;-84
2024/01/07 09:37:43;;;;;;;2.15;0.93;;;11.00;99.90;;;;;;4991230;28;20038;-80
2024/01/07 13:37:27;;;;;;;4.63;3.33;;;12.40;99.90;;;;;;1390601;23;20330;-95
2024/01/07 13:40:00;;;;;;;4.75;3.28;;;12.40;99.90;;;;;;4968989;28;20078;-96
2024/01/07 13:42:37;;;;;;;4.63;3.53;;;12.30;99.90;;;;;;4976161;28;20033;-96
2024/01/07 13:45:53;;;;;;;5.65;3.58;;;12.40;99.90;;;;;;4987863;28;20030;-96
2024/01/07 13:49:03;;;;;;;4.53;3.75;;;12.30;99.90;;;;;;4990061;28;20035;-96
2024/01/07 13:51:41;;;;;;;4.80;3.42;;;12.30;99.90;;;;;;4897825;29;20031;-96
2024/01/07 13:54:16;;;;;;;4.57;3.75;;;12.30;99.90;;;;;;4965744;28;20507;-96
2024/01/07 13:57:06;;;;;;;4.13;3.20;;;12.30;99.90;;;;;;4990425;28;20018;-96
2024/01/07 13:59:56;;;;;;;6.72;4.03;;;12.30;99.90;;;;;;4938077;28;20045;-96
2024/01/07 14:02:58;;;;;;;3.90;3.30;;;12.30;99.90;;;;;;4983823;28;20038;-96
2024/01/07 14:05:54;;;;;;;4.68;3.90;;;12.30;99.90;;;;;;4973678;28;20043;-96
2024/01/07 14:08:52;;;;;;;5.10;3.50;;;12.40;99.90;;;;;;4964072;28;20033;-96
2024/01/07 14:11:45;;;;;;;4.93;3.88;;;12.40;99.90;;;;;;4970651;28;20015;-96
2024/01/07 14:14:19;;;;;;;5.20;3.95;;;12.40;99.90;;;;;;4970375;28;20098;-96
2024/01/07 14:17:26;;;;;;;6.05;3.85;;;12.40;99.90;;;;;;4977594;28;20018;-96
2024/01/07 14:19:57;;;;;;;5.57;3.95;;;12.40;99.90;;;;;;4994997;28;20042;-96
2024/01/07 14:23:09;;;;;;;3.88;3.05;;;12.40;99.90;;;;;;4980108;28;20067;-96
2024/01/07 14:25:46;;;;;;;4.97;3.92;;;12.40;99.90;;;;;;5002698;23;20157;-89
2024/01/07 14:28:15;;;;;;;5.15;4.00;;;12.40;99.90;;;;;;4982748;28;20041;-88
2024/01/07 14:30:41;;;;;;;4.70;3.83;;;12.40;99.90;;;;;;4975192;28;20082;-90
2024/01/07 14:33:07;;;;;;;7.82;4.43;;;12.40;99.90;;;;;;4976048;28;20053;-90
2024/01/07 14:35:33;;;;;;;5.68;4.05;;;12.30;99.90;;;;;;4988511;28;20019;-87
2024/01/07 14:38:00;;;;;;;6.47;3.88;;;12.30;99.90;;;;;;4989219;28;20483;-87
2024/01/07 14:40:26;;;;;;;4.07;3.67;;;12.30;99.90;;;;;;4986565;28;20106;-88
2024/01/07 14:42:54;;;;;;;4.93;3.50;;;12.20;99.90;;;;;;4986568;28;20061;-89
2024/01/07 14:45:20;;;;;;;6.78;4.13;;;12.20;99.90;;;;;;4974994;28;20385;-89
2024/01/07 14:47:46;;;;;;;5.65;3.90;;;12.20;99.90;;;;;;4975488;28;20045;-90
2024/01/07 14:50:12;;;;;;;6.18;3.60;;;12.20;99.90;;;;;;4973791;28;20110;-90
2024/01/07 14:52:38;;;;;;;4.45;3.30;;;12.20;99.90;;;;;;4983602;28;20026;-90
2024/01/07 14:55:04;;;;;;;5.47;3.38;;;12.20;99.90;;;;;;4983720;28;20026;-90
2024/01/07 14:57:30;;;;;;;4.53;3.28;;;12.20;99.90;;;;;;4975586;28;20034;-89
2024/01/07 14:59:55;;;;;;;4.82;3.50;;;12.20;99.90;;;;;;4974181;28;20501;-89
2024/01/07 15:02:21;;;;;;;5.82;3.70;;;12.20;99.90;;;;;;4981808;28;20095;-91
2024/01/07 15:04:47;;;;;;;5.03;3.72;;;12.20;99.90;;;;;;4985454;28;20030;-88
2024/01/07 15:07:13;;;;;;;6.07;4.28;;;12.20;99.90;;;;;;4981936;28;20031;-90
2024/01/07 15:09:41;;;;;;;5.60;4.22;;;12.20;99.90;;;;;;4992800;28;20077;-91
2024/01/07 15:12:07;;;;;;;4.82;3.67;;;12.20;99.90;;;;;;4982113;28;20065;-93
2024/01/07 15:14:33;;;;;;;6.93;4.57;;;12.20;99.90;;;;;;4985025;28;20468;-92
2024/01/07 15:16:59;;;;;;;6.35;4.35;;;12.20;99.90;;;;;;4984682;28;20085;-94
2024/01/07 15:19:25;;;;;;;5.15;3.92;;;12.20;99.90;;;;;;4975746;28;20022;-93
2024/01/07 15:21:50;;;;;;;7.20;4.90;;;12.20;99.90;;;;;;4977965;28;20101;-93
2024/01/07 15:24:16;;;;;;;7.28;4.90;;;12.20;99.90;;;;;;4974685;28;20461;-88
2024/01/07 15:26:42;;;;;;;6.00;4.53;;;12.20;99.90;;;;;;4991239;28;20109;-89
2024/01/07 15:29:08;;;;;;;6.85;4.90;;;12.10;99.90;;;;;;4991694;28;20524;-90
2024/01/07 15:31:34;;;;;;;5.32;3.92;;;12.10;99.90;;;;;;4975650;28;20151;-88
2024/01/07 15:33:59;;;;;;;5.03;4.20;;;12.10;99.90;;;;;;4975036;28;20114;-88
2024/01/07 15:36:25;;;;;;;5.50;4.05;;;12.10;99.90;;;;;;4975015;28;20030;-86
2024/01/07 15:38:52;;;;;;;5.53;4.25;;;12.10;99.90;;;;;;4983449;28;20038;-87
2024/01/07 15:41:17;;;;;;;5.25;3.63;;;12.10;99.90;;;;;;4986629;28;20033;-88
2024/01/07 15:43:43;;;;;;;5.80;4.10;;;12.10;99.90;;;;;;4988337;28;20026;-87
2024/01/07 15:46:09;;;;;;;4.60;3.33;;;12.00;99.90;;;;;;4986550;28;20018;-87
2024/01/07 15:48:35;;;;;;;4.05;3.60;;;12.00;99.90;;;;;;4993457;28;20042;-88
2024/01/07 15:51:01;;;;;;;4.47;2.97;;;12.00;99.90;;;;;;4992616;28;20031;-87
2024/01/07 15:53:32;;;;;;;4.13;3.15;;;12.00;99.90;;;;;;4992596;28;20027;-87
2024/01/07 15:56:09;;;;;;;4.25;3.00;;;12.00;99.90;;;;;;4987035;28;20372;-88
2024/01/07 15:58:37;;;;;;;4.22;3.20;;;12.00;99.90;;;;;;4993063;28;20058;-87
2024/01/07 16:01:06;;;;;;;5.32;3.85;;;12.00;99.90;;;;;;4984966;28;20039;-87
2024/01/07 16:03:35;;;;;;;9.02;3.40;;;12.00;99.90;;;;;;4991518;28;20037;-87
2024/01/07 16:06:01;;;;;;;4.60;3.53;;;12.00;99.90;;;;;;4997993;28;20105;-88
2024/01/07 16:08:29;;;;;;;6.85;4.00;;;12.00;99.90;;;;;;4997737;28;20538;-88
2024/01/07 16:11:04;;;;;;;4.38;3.30;;;12.00;99.90;;;;;;4986045;28;20041;-87
2024/01/07 16:13:32;;;;;;;5.38;2.55;;;12.00;99.90;;;;;;4989210;28;20476;-87
2024/01/07 16:16:03;;;;;;;3.00;2.50;;;11.90;99.90;;;;;;4989095;28;20476;-87
2024/01/07 16:18:29;;;;;;;2.95;2.30;;;11.90;99.90;;;;;;4997460;28;20475;-88
2024/01/07 16:20:58;;;;;;;2.72;2.17;;;11.90;99.90;;;;;;4985829;28;20034;-87
2024/01/07 16:23:24;;;;;;;2.13;1.67;;;11.90;99.90;;;;;;4992890;28;20023;-91
2024/01/07 16:25:56;;;;;;;4.72;2.20;;;11.90;99.90;;;;;;4984983;28;20043;-91
2024/01/07 16:28:22;;;;;;;2.08;1.65;;;11.90;99.90;;;;;;4977569;28;20031;-86
2024/01/07 16:30:50;;;;;;;3.13;1.80;;;11.80;99.90;;;;;;4974454;28;20031;-87
2024/01/07 16:33:18;;;;;;;3.00;1.77;;;11.80;99.90;;;;;;4975538;28;20087;-85
2024/01/07 16:35:47;;;;;;;2.65;1.98;;;11.80;99.90;;;;;;4975943;28;20100;-85
2024/01/07 16:38:13;;;;;;;2.22;1.70;;;11.80;99.90;;;;;;4970596;28;20026;-85
2024/01/07 16:40:39;;;;;;;2.50;1.85;;;11.80;99.90;;;;;;4981262;28;20034;-84
2024/01/07 16:43:07;;;;;;;2.75;1.70;;;11.80;99.90;;;;;;4991843;28;20045;-84
2024/01/07 16:45:33;;;;;;;2.53;1.83;;;11.80;99.90;;;;;;4974488;28;20113;-83